createdAt,value
2018-03-24T00:01:43.889Z,2.50
2018-03-24T00:04:12.105Z,2.60
2018-03-24T00:06:39.581Z,2.60
2018-03-24T00:09:07.031Z,2.60
2018-03-24T00:11:34.518Z,2.60
2018-03-24T00:14:02.757Z,2.60
2018-03-24T00:16:30.209Z,2.60
2018-03-24T00:18:57.665Z,2.60
2018-03-24T00:21:25.145Z,2.60
2018-03-24T00:23:52.626Z,2.70
2018-03-24T00:26:20.836Z,2.70
2018-03-24T00:28:48.319Z,2.70
2018-03-24T00:31:15.797Z,2.70
2018-03-24T00:33:44.324Z,2.80
2018-03-24T00:36:11.789Z,2.80
2018-03-24T00:38:40.022Z,2.80
2018-03-24T00:41:08.265Z,2.80
2018-03-24T00:43:35.716Z,2.80
2018-03-24T00:46:03.193Z,2.80
2018-03-24T00:48:31.414Z,2.90
2018-03-24T00:50:59.573Z,2.80
2018-03-24T00:53:27.028Z,2.90
2018-03-24T00:55:54.497Z,2.90
2018-03-24T00:58:21.943Z,2.90
2018-03-24T01:00:49.425Z,2.90
2018-03-24T01:03:16.886Z,2.90
2018-03-24T01:05:44.334Z,2.90
2018-03-24T01:08:11.809Z,2.90
2018-03-24T01:10:39.261Z,2.90
2018-03-24T01:13:06.738Z,2.90
2018-03-24T01:15:34.961Z,2.90
2018-03-24T01:18:02.438Z,2.90
2018-03-24T01:20:29.890Z,2.90
2018-03-24T01:22:57.360Z,2.90
2018-03-24T01:25:24.809Z,2.90
2018-03-24T01:27:52.284Z,2.90
2018-03-24T01:30:20.512Z,2.80
2018-03-24T01:32:47.963Z,2.80
2018-03-24T01:35:15.434Z,2.80
2018-03-24T01:37:42.897Z,2.70
2018-03-24T01:40:10.374Z,2.70
2018-03-24T01:42:37.825Z,2.60
2018-03-24T01:45:05.293Z,2.50
2018-03-24T01:47:33.505Z,2.40
2018-03-24T01:50:00.995Z,2.40
2018-03-24T01:52:28.445Z,2.30
2018-03-24T01:54:55.901Z,2.30
2018-03-24T01:57:23.468Z,2.20
2018-03-24T01:59:51.025Z,2.20
2018-03-24T02:02:18.494Z,2.20
2018-03-24T02:04:45.945Z,2.20
2018-03-24T02:07:13.438Z,2.10
2018-03-24T02:09:40.895Z,2.10
2018-03-24T02:12:08.442Z,2.10
2018-03-24T02:14:36.681Z,2.20
2018-03-24T02:17:04.131Z,2.20
2018-03-24T02:19:31.623Z,2.30
2018-03-24T02:21:59.838Z,2.20
2018-03-24T02:24:27.311Z,2.30
2018-03-24T02:26:54.789Z,2.30
2018-03-24T02:29:22.244Z,2.30
2018-03-24T02:31:49.710Z,2.40
2018-03-24T02:34:17.179Z,2.40
2018-03-24T02:36:45.413Z,2.50
2018-03-24T02:39:12.866Z,2.50
2018-03-24T02:41:40.347Z,2.50
2018-03-24T02:44:07.801Z,2.60
2018-03-24T02:46:35.278Z,2.60
2018-03-24T02:49:03.498Z,2.70
2018-03-24T02:51:30.980Z,2.60
2018-03-24T02:53:58.462Z,2.70
2018-03-24T02:56:26.674Z,2.70
2018-03-24T02:58:54.129Z,2.70
2018-03-24T03:01:21.606Z,2.70
2018-03-24T03:03:49.061Z,2.70
2018-03-24T03:06:16.517Z,2.70
2018-03-24T03:08:43.994Z,2.70
2018-03-24T03:11:11.474Z,2.70
2018-03-24T03:13:39.700Z,2.70
2018-03-24T03:16:07.162Z,2.70
2018-03-24T03:18:34.735Z,2.70
2018-03-24T03:21:02.185Z,2.70
2018-03-24T03:23:29.654Z,2.70
2018-03-24T03:25:57.101Z,2.70
2018-03-24T03:28:24.580Z,2.70
2018-03-24T03:33:53.449Z,2.70
2018-03-24T03:36:20.912Z,2.70
2018-03-24T03:38:48.365Z,2.70
2018-03-24T03:41:15.822Z,2.70
2018-03-24T03:43:43.284Z,2.70
2018-03-24T03:46:10.738Z,2.70
2018-03-24T03:48:38.198Z,2.70
2018-03-24T03:51:05.660Z,2.70
2018-03-24T03:53:33.101Z,2.70
2018-03-24T03:56:00.556Z,2.70
2018-03-24T03:58:28.029Z,2.60
2018-03-24T04:00:55.476Z,2.60
2018-03-24T04:03:22.925Z,2.50
2018-03-24T04:05:50.400Z,2.50
2018-03-24T04:08:17.849Z,2.50
2018-03-24T04:10:45.329Z,2.50
2018-03-24T04:13:12.789Z,2.50
2018-03-24T04:15:40.236Z,2.40
2018-03-24T04:18:07.692Z,2.30
2018-03-24T04:20:35.927Z,2.20
2018-03-24T04:23:03.376Z,2.20
2018-03-24T04:25:30.828Z,2.10
2018-03-24T04:27:58.300Z,2.00
2018-03-24T04:30:25.750Z,1.90
2018-03-24T04:32:53.206Z,1.80
2018-03-24T04:35:21.479Z,1.70
2018-03-24T04:37:48.941Z,1.70
2018-03-24T04:40:16.393Z,1.70
2018-03-24T04:42:43.882Z,1.60
2018-03-24T04:45:12.092Z,1.60
2018-03-24T04:47:39.550Z,1.60
2018-03-24T04:50:07.035Z,1.60
2018-03-24T04:52:34.498Z,1.50
2018-03-24T04:55:01.973Z,1.50
2018-03-24T04:57:30.188Z,1.40
2018-03-24T04:59:57.647Z,1.40
2018-03-24T05:02:25.125Z,1.40
2018-03-24T05:04:52.594Z,1.30
2018-03-24T05:07:20.084Z,1.30
2018-03-24T05:09:47.545Z,1.20
2018-03-24T05:12:15.037Z,1.20
2018-03-24T05:14:42.505Z,1.10
2018-03-24T05:17:09.965Z,1.10
2018-03-24T05:19:37.447Z,1.10
2018-03-24T05:22:05.677Z,1.10
2018-03-24T05:24:33.141Z,1.00
2018-03-24T05:27:00.598Z,1.00
2018-03-24T05:29:28.124Z,1.00
2018-03-24T05:31:55.586Z,1.00
2018-03-24T05:34:23.045Z,1.00
2018-03-24T05:36:50.530Z,1.00
2018-03-24T05:39:17.990Z,1.00
2018-03-24T05:41:45.464Z,1.10
2018-03-24T05:44:13.719Z,1.10
2018-03-24T05:46:41.188Z,1.20
2018-03-24T05:49:09.417Z,1.20
2018-03-24T05:51:36.902Z,1.20
2018-03-24T05:54:04.355Z,1.20
2018-03-24T05:56:31.832Z,1.30
2018-03-24T05:59:00.062Z,1.30
2018-03-24T06:01:27.612Z,1.30
2018-03-24T06:03:55.069Z,1.30
2018-03-24T06:06:22.561Z,1.30
2018-03-24T06:08:50.060Z,1.40
2018-03-24T06:11:17.513Z,1.50
2018-03-24T06:13:44.994Z,1.60
2018-03-24T06:16:12.466Z,1.60
2018-03-24T06:18:39.956Z,1.70
2018-03-24T06:21:07.403Z,1.70
2018-03-24T06:23:34.882Z,1.70
2018-03-24T06:26:02.413Z,1.80
2018-03-24T06:28:29.869Z,1.80
2018-03-24T06:31:02.841Z,1.80
2018-03-24T06:33:30.351Z,1.90
2018-03-24T06:35:59.469Z,1.90
2018-03-24T06:38:26.922Z,1.90
2018-03-24T06:40:54.393Z,2.00
2018-03-24T06:43:21.847Z,2.00
2018-03-24T06:45:49.341Z,2.00
2018-03-24T06:48:16.785Z,2.10
2018-03-24T06:50:44.232Z,2.10
2018-03-24T06:53:11.704Z,2.20
2018-03-24T06:55:39.203Z,2.20
2018-03-24T06:58:06.680Z,2.30
2018-03-24T07:00:34.192Z,2.30
2018-03-24T07:03:01.625Z,2.40
2018-03-24T07:05:29.102Z,2.40
2018-03-24T07:07:56.580Z,2.50
2018-03-24T07:10:24.060Z,2.60
2018-03-24T07:12:51.541Z,2.60
2018-03-24T07:15:18.987Z,2.70
2018-03-24T07:17:46.476Z,2.80
2018-03-24T07:20:14.722Z,2.90
2018-03-24T07:22:42.285Z,2.90
2018-03-24T07:25:10.497Z,3.00
2018-03-24T07:27:37.965Z,3.00
2018-03-24T07:30:05.446Z,3.10
2018-03-24T07:32:32.928Z,3.10
2018-03-24T07:35:00.429Z,3.20
2018-03-24T07:37:27.878Z,3.30
2018-03-24T07:39:55.356Z,3.40
2018-03-24T07:42:22.805Z,3.40
2018-03-24T07:44:50.313Z,3.50
2018-03-24T07:47:17.761Z,3.50
2018-03-24T07:49:45.217Z,3.50
2018-03-24T07:52:12.691Z,3.60
2018-03-24T07:54:40.934Z,3.70
2018-03-24T07:57:08.400Z,3.70
2018-03-24T07:59:35.868Z,3.80
2018-03-24T08:02:03.340Z,3.90
2018-03-24T08:04:31.594Z,4.00
2018-03-24T08:06:59.049Z,3.90
2018-03-24T08:09:26.525Z,4.00
2018-03-24T08:11:56.777Z,4.10
2018-03-24T08:14:24.214Z,4.10
2018-03-24T08:16:51.928Z,4.10
2018-03-24T08:19:19.498Z,4.20
2018-03-24T08:21:47.011Z,4.20
2018-03-24T08:24:14.457Z,4.30
2018-03-24T08:26:41.972Z,4.30
2018-03-24T08:29:09.419Z,4.40
2018-03-24T08:31:36.904Z,4.50
2018-03-24T08:34:05.124Z,4.60
2018-03-24T08:36:32.926Z,4.60
2018-03-24T08:39:00.649Z,4.70
2018-03-24T08:41:28.270Z,4.80
2018-03-24T08:43:55.905Z,4.80
2018-03-24T08:46:24.156Z,5.00
2018-03-24T08:48:52.019Z,4.90
2018-03-24T08:51:20.281Z,5.10
2018-03-24T08:53:47.734Z,5.10
2018-03-24T08:56:15.181Z,5.20
2018-03-24T08:58:42.725Z,5.30
2018-03-24T09:01:10.169Z,5.30
2018-03-24T09:03:37.674Z,5.40
2018-03-24T09:06:05.166Z,5.40
2018-03-24T09:08:33.395Z,5.50
2018-03-24T09:11:00.839Z,5.50
2018-03-24T09:13:28.308Z,5.60
2018-03-24T09:15:55.769Z,5.60
2018-03-24T09:18:23.264Z,5.60
2018-03-24T09:20:51.566Z,5.70
2018-03-24T09:23:19.606Z,5.60
2018-03-24T09:25:47.208Z,5.70
2018-03-24T09:28:14.665Z,5.70
2018-03-24T09:30:42.136Z,5.70
2018-03-24T09:33:09.761Z,5.70
2018-03-24T09:35:37.257Z,5.70
2018-03-24T09:38:04.713Z,5.70
2018-03-24T09:40:32.192Z,5.70
2018-03-24T09:42:59.650Z,5.70
2018-03-24T09:45:27.101Z,5.80
2018-03-24T09:47:54.587Z,5.90
2018-03-24T09:50:22.050Z,6.00
2018-03-24T09:52:49.669Z,6.10
2018-03-24T09:55:19.050Z,6.20
2018-03-24T09:57:46.921Z,6.40
2018-03-24T10:00:14.635Z,6.50
2018-03-24T10:02:42.969Z,6.60
2018-03-24T10:05:10.428Z,6.60
2018-03-24T10:07:37.885Z,6.70
2018-03-24T10:10:05.555Z,6.80
2018-03-24T10:12:33.006Z,6.80
2018-03-24T10:15:00.485Z,6.70
2018-03-24T10:17:28.708Z,6.70
2018-03-24T10:19:56.204Z,6.70
2018-03-24T10:25:23.945Z,6.90
2018-03-24T10:27:51.458Z,7.00
2018-03-24T10:30:18.950Z,7.00
2018-03-24T10:32:46.842Z,7.10
2018-03-24T10:35:14.318Z,7.10
2018-03-24T10:37:47.489Z,7.20
2018-03-24T10:40:14.972Z,7.40
2018-03-24T10:42:43.213Z,7.50
2018-03-24T10:45:10.770Z,7.50
2018-03-24T10:47:38.298Z,7.60
2018-03-24T10:50:05.744Z,7.70
2018-03-24T10:52:33.195Z,7.80
2018-03-24T10:55:00.680Z,7.90
2018-03-24T10:57:28.129Z,7.90
2018-03-24T10:59:55.605Z,7.90
2018-03-24T11:02:23.202Z,8.00
2018-03-24T11:04:50.690Z,8.10
2018-03-24T11:07:18.187Z,8.10
2018-03-24T11:09:45.746Z,8.10
2018-03-24T11:12:13.228Z,8.10
2018-03-24T11:14:41.465Z,8.20
2018-03-24T11:17:09.025Z,8.10
2018-03-24T11:19:36.586Z,8.20
2018-03-24T11:22:04.061Z,8.30
2018-03-24T11:24:32.283Z,8.40
2018-03-24T11:26:59.759Z,8.40
2018-03-24T11:29:27.229Z,8.50
2018-03-24T11:31:54.689Z,8.50
2018-03-24T11:34:22.173Z,8.60
2018-03-24T11:36:50.382Z,8.80
2018-03-24T11:39:17.863Z,8.80
2018-03-24T11:41:45.314Z,8.90
2018-03-24T11:44:12.917Z,9.00
2018-03-24T11:46:41.136Z,9.10
2018-03-24T11:49:08.616Z,9.10
2018-03-24T11:51:36.169Z,9.20
2018-03-24T11:54:04.149Z,9.30
2018-03-24T11:56:31.833Z,9.40
2018-03-24T11:59:00.302Z,9.40
2018-03-24T12:01:28.735Z,9.30
2018-03-24T12:03:56.226Z,9.30
2018-03-24T12:06:23.674Z,9.40
2018-03-24T12:08:51.145Z,9.60
2018-03-24T12:11:19.406Z,9.80
2018-03-24T12:13:46.875Z,9.80
2018-03-24T12:16:15.125Z,10.00
2018-03-24T12:18:42.958Z,10.00
2018-03-24T12:21:10.417Z,10.00
2018-03-24T12:23:37.895Z,10.10
2018-03-24T12:26:05.375Z,10.10
2018-03-24T12:28:33.606Z,10.10
2018-03-24T12:31:01.091Z,10.10
2018-03-24T12:33:31.772Z,10.10
2018-03-24T12:35:59.395Z,10.20
2018-03-24T12:38:27.662Z,10.30
2018-03-24T12:40:55.214Z,10.30
2018-03-24T12:43:22.777Z,10.30
2018-03-24T12:45:50.229Z,10.30
2018-03-24T12:48:17.688Z,10.40
2018-03-24T12:50:45.458Z,10.50
2018-03-24T12:53:13.095Z,10.60
2018-03-24T12:55:40.581Z,10.70
2018-03-24T12:58:08.234Z,10.80
2018-03-24T13:00:35.699Z,10.90
2018-03-24T13:03:03.164Z,11.00
2018-03-24T13:05:31.408Z,11.10
2018-03-24T13:07:59.002Z,11.00
2018-03-24T13:10:27.222Z,11.20
2018-03-24T13:12:54.713Z,11.20
2018-03-24T13:15:22.259Z,11.30
2018-03-24T13:17:49.716Z,11.40
2018-03-24T13:20:17.197Z,11.40
2018-03-24T13:22:45.416Z,11.60
2018-03-24T13:25:12.889Z,11.60
2018-03-24T13:27:40.386Z,11.70
2018-03-24T13:30:07.914Z,11.70
2018-03-24T13:32:35.410Z,11.80
2018-03-24T13:35:03.685Z,11.90
2018-03-24T13:37:31.097Z,11.90
2018-03-24T13:39:58.593Z,12.00
2018-03-24T13:42:26.831Z,12.20
2018-03-24T13:44:54.277Z,12.20
2018-03-24T13:47:21.834Z,12.20
2018-03-24T13:49:49.285Z,12.30
2018-03-24T13:52:16.861Z,12.40
2018-03-24T13:54:44.418Z,12.40
2018-03-24T13:57:12.648Z,12.30
2018-03-24T13:59:40.140Z,12.30
2018-03-24T14:02:07.602Z,12.30
2018-03-24T14:04:35.876Z,12.60
2018-03-24T14:07:03.442Z,12.60
2018-03-24T14:09:30.997Z,12.90
2018-03-24T14:11:59.250Z,14.10
2018-03-24T14:14:26.701Z,14.10
2018-03-24T14:16:54.162Z,15.50
2018-03-24T14:19:21.784Z,17.60
2018-03-24T14:21:49.236Z,20.60
2018-03-24T14:24:16.691Z,23.90
2018-03-24T14:26:44.173Z,27.00
2018-03-24T14:29:11.629Z,30.10
2018-03-24T14:31:39.315Z,32.70
2018-03-24T14:34:07.585Z,36.70
2018-03-24T14:36:35.348Z,36.60
2018-03-24T14:39:03.023Z,38.20
2018-03-24T14:41:31.767Z,40.20
2018-03-24T14:43:59.633Z,40.10
2018-03-24T14:46:27.500Z,40.90
2018-03-24T14:48:55.282Z,41.70
2018-03-24T14:51:26.051Z,42.20
2018-03-24T14:53:54.675Z,43.00
2018-03-24T14:56:22.541Z,43.00
2018-03-24T14:58:50.284Z,43.10
2018-03-24T15:01:18.170Z,43.20
2018-03-24T15:03:45.974Z,43.00
2018-03-24T15:06:14.514Z,41.90
2018-03-24T15:08:42.380Z,41.80
2018-03-24T15:11:10.189Z,41.70
2018-03-24T15:13:38.722Z,42.70
2018-03-24T15:16:06.330Z,42.70
2018-03-24T15:18:33.886Z,43.30
2018-03-24T15:21:01.353Z,43.80
2018-03-24T15:23:29.593Z,43.10
2018-03-24T15:25:57.080Z,43.00
2018-03-24T15:28:27.048Z,42.40
2018-03-24T15:31:06.415Z,42.00
2018-03-24T15:33:46.705Z,42.10
2018-03-24T15:36:26.841Z,41.80
2018-03-24T15:38:54.287Z,41.70
2018-03-24T15:41:21.745Z,41.50
2018-03-24T15:43:49.218Z,41.40
2018-03-24T15:46:17.468Z,41.00
2018-03-24T15:48:45.027Z,40.90
2018-03-24T15:51:12.586Z,40.90
2018-03-24T15:53:40.248Z,40.80
2018-03-24T15:56:07.831Z,39.80
2018-03-24T15:58:35.291Z,38.90
2018-03-24T16:01:02.766Z,38.10
2018-03-24T16:03:30.275Z,37.40
2018-03-24T16:05:57.767Z,36.60
2018-03-24T16:08:25.527Z,36.10
2018-03-24T16:10:53.821Z,34.50
2018-03-24T16:13:21.309Z,34.40
2018-03-24T16:15:49.594Z,32.90
2018-03-24T16:18:17.095Z,32.90
2018-03-24T16:20:45.433Z,31.30
2018-03-24T16:23:12.886Z,31.20
2018-03-24T16:25:40.738Z,29.40
2018-03-24T16:28:08.237Z,27.20
2018-03-24T16:30:36.505Z,22.60
2018-03-24T16:33:09.641Z,20.70
2018-03-24T16:35:40.064Z,20.60
2018-03-24T16:38:07.548Z,19.10
2018-03-24T16:40:35.032Z,17.60
2018-03-24T16:43:03.244Z,15.60
2018-03-24T16:45:30.770Z,15.60
2018-03-24T16:47:58.415Z,15.00
2018-03-24T16:50:26.654Z,14.00
2018-03-24T16:52:54.288Z,13.90
2018-03-24T16:55:21.741Z,13.60
2018-03-24T16:57:49.222Z,13.20
2018-03-24T17:00:16.905Z,12.80
2018-03-24T17:02:44.391Z,12.60
2018-03-24T17:05:12.624Z,12.10
2018-03-24T17:07:40.130Z,12.10
2018-03-24T17:10:08.353Z,11.60
2018-03-24T17:12:35.810Z,11.60
2018-03-24T17:15:03.431Z,11.40
2018-03-24T17:17:30.951Z,11.10
2018-03-24T17:19:59.240Z,10.70
2018-03-24T17:22:26.728Z,10.70
2018-03-24T17:24:54.200Z,10.50
2018-03-24T17:27:21.682Z,10.30
2018-03-24T17:29:49.253Z,10.00
2018-03-24T17:32:16.728Z,9.80
2018-03-24T17:34:44.942Z,9.40
2018-03-24T17:37:12.422Z,9.40
2018-03-24T17:39:39.869Z,9.20
2018-03-24T17:42:07.348Z,9.00
2018-03-24T17:44:35.575Z,8.60
2018-03-24T17:47:03.053Z,8.70
2018-03-24T17:49:30.557Z,8.50
2018-03-24T17:51:58.755Z,8.20
2018-03-24T17:54:26.222Z,8.20
2018-03-24T17:56:53.675Z,8.10
2018-03-24T17:59:21.152Z,8.00
2018-03-24T18:01:48.604Z,7.80
2018-03-24T18:04:16.081Z,7.70
2018-03-24T18:06:43.565Z,7.60
2018-03-24T18:09:11.083Z,7.50
2018-03-24T18:11:38.852Z,7.40
2018-03-24T18:14:06.302Z,7.30
2018-03-24T18:16:33.780Z,7.10
2018-03-24T18:19:02.005Z,6.90
2018-03-24T18:21:29.629Z,6.80
2018-03-24T18:23:57.073Z,6.70
2018-03-24T18:26:25.326Z,6.50
2018-03-24T18:28:53.557Z,6.40
2018-03-24T18:31:21.051Z,6.40
2018-03-24T18:33:48.510Z,6.30
2018-03-24T18:36:16.066Z,6.20
2018-03-24T18:38:43.968Z,6.10
2018-03-24T18:41:11.422Z,6.00
2018-03-24T18:43:38.957Z,6.00
2018-03-24T18:46:06.427Z,5.90
2018-03-24T18:48:34.680Z,5.70
2018-03-24T18:51:02.163Z,5.70
2018-03-24T18:53:30.382Z,5.70
2018-03-24T18:55:57.882Z,5.60
2018-03-24T18:58:26.104Z,5.60
2018-03-24T19:00:53.562Z,5.60
2018-03-24T19:03:21.057Z,5.60
2018-03-24T19:05:48.504Z,5.50
2018-03-24T19:08:15.949Z,5.50
2018-03-24T19:10:44.439Z,5.60
2018-03-24T19:13:11.890Z,5.60
2018-03-24T19:15:39.445Z,5.60
2018-03-24T19:18:06.906Z,5.60
2018-03-24T19:20:34.381Z,5.70
2018-03-24T19:23:02.605Z,5.70
2018-03-24T19:25:30.078Z,5.70
2018-03-24T19:27:57.647Z,5.80
2018-03-24T19:30:25.128Z,5.80
2018-03-24T19:32:53.337Z,5.80
2018-03-24T19:35:20.873Z,5.80
2018-03-24T19:37:48.355Z,5.80
2018-03-24T19:40:15.831Z,5.80
2018-03-24T19:42:43.317Z,5.80
2018-03-24T19:45:10.770Z,5.80
2018-03-24T19:47:38.262Z,5.80
2018-03-24T19:50:05.762Z,5.80
2018-03-24T19:52:33.160Z,5.80
2018-03-24T19:55:00.646Z,5.80
2018-03-24T19:57:28.106Z,5.80
2018-03-24T19:59:55.591Z,5.80
2018-03-24T20:02:23.037Z,5.80
2018-03-24T20:04:50.535Z,5.80
2018-03-24T20:07:18.793Z,5.80
2018-03-24T20:09:46.229Z,5.80
2018-03-24T20:12:13.715Z,5.80
2018-03-24T20:14:41.953Z,5.90
2018-03-24T20:17:09.449Z,5.90
2018-03-24T20:19:37.669Z,6.00
2018-03-24T20:22:05.128Z,6.00
2018-03-24T20:24:32.612Z,6.00
2018-03-24T20:27:00.098Z,6.10
2018-03-24T20:29:28.325Z,6.10
2018-03-24T20:31:55.789Z,6.00
2018-03-24T20:34:23.258Z,6.10
2018-03-24T20:36:50.710Z,6.10
2018-03-24T20:39:18.182Z,6.10
2018-03-24T20:41:45.682Z,6.10
2018-03-24T20:44:13.139Z,6.10
2018-03-24T20:46:40.618Z,6.10
2018-03-24T20:49:08.087Z,6.10
2018-03-24T20:51:35.558Z,6.10
2018-03-24T20:54:03.116Z,6.00
2018-03-24T20:56:30.522Z,6.00
2018-03-24T20:58:58.003Z,6.00
2018-03-24T21:01:26.302Z,6.00
2018-03-24T21:03:53.725Z,5.90
2018-03-24T21:06:21.263Z,6.00
2018-03-24T21:08:48.741Z,5.90
2018-03-24T21:11:16.225Z,5.90
2018-03-24T21:13:43.677Z,5.90
2018-03-24T21:16:11.132Z,5.80
2018-03-24T21:18:38.717Z,5.80
2018-03-24T21:21:06.941Z,5.80
2018-03-24T21:23:34.417Z,5.70
2018-03-24T21:26:01.968Z,5.70
2018-03-24T21:28:29.530Z,5.70
2018-03-24T21:30:57.010Z,5.70
2018-03-24T21:33:25.266Z,5.60
2018-03-24T21:35:52.833Z,5.60
2018-03-24T21:38:20.373Z,5.60
2018-03-24T21:40:47.832Z,5.60
2018-03-24T21:43:15.314Z,5.60
2018-03-24T21:45:43.661Z,5.50
2018-03-24T21:48:11.228Z,5.50
2018-03-24T21:50:38.850Z,5.50
2018-03-24T21:53:06.264Z,5.50
2018-03-24T21:55:34.583Z,5.50
2018-03-24T21:58:02.037Z,5.40
2018-03-24T22:00:29.625Z,5.40
2018-03-24T22:02:57.185Z,5.40
2018-03-24T22:05:24.636Z,5.40
2018-03-24T22:07:52.203Z,5.40
2018-03-24T22:10:19.682Z,5.40
2018-03-24T22:12:48.036Z,5.30
2018-03-24T22:15:15.499Z,5.30
2018-03-24T22:17:42.977Z,5.30
2018-03-24T22:20:10.492Z,5.30
2018-03-24T22:22:37.953Z,5.30
2018-03-24T22:25:05.401Z,5.30
2018-03-24T22:27:32.903Z,5.30
2018-03-24T22:30:00.361Z,5.30
2018-03-24T22:32:28.574Z,5.20
2018-03-24T22:34:56.058Z,5.20
2018-03-24T22:37:23.546Z,5.20
2018-03-24T22:39:51.765Z,5.10
2018-03-24T22:42:19.341Z,5.10
2018-03-24T22:44:46.807Z,5.10
2018-03-24T22:47:14.292Z,5.00
2018-03-24T22:49:42.513Z,5.00
2018-03-24T22:52:10.003Z,4.90
2018-03-24T22:54:38.250Z,4.90
2018-03-24T22:57:06.465Z,4.80
2018-03-24T22:59:33.941Z,4.80
2018-03-24T23:02:01.449Z,4.80
2018-03-24T23:04:28.901Z,4.70
2018-03-24T23:06:56.381Z,4.70
2018-03-24T23:09:24.627Z,4.60
2018-03-24T23:11:52.083Z,4.60
2018-03-24T23:14:19.645Z,4.60
2018-03-24T23:16:47.201Z,4.60
2018-03-24T23:19:14.753Z,4.60
2018-03-24T23:21:42.212Z,4.60
2018-03-24T23:24:09.758Z,4.60
2018-03-24T23:26:37.210Z,4.60
2018-03-24T23:29:04.784Z,4.60
2018-03-24T23:31:32.264Z,4.60
2018-03-24T23:34:00.477Z,4.70
2018-03-24T23:36:28.021Z,4.70
2018-03-24T23:38:55.474Z,4.70
2018-03-24T23:41:22.955Z,4.80
2018-03-24T23:43:50.487Z,4.80
2018-03-24T23:46:17.983Z,4.80
2018-03-24T23:48:45.437Z,4.80
2018-03-24T23:51:13.017Z,4.80
2018-03-24T23:53:41.228Z,4.80
2018-03-24T23:56:08.700Z,4.80
2018-03-24T23:58:36.150Z,4.70
